Home > Products > Valid Products > TAF

000
FTUS45 KVEF 290200 AAA
TAFLAS
TAF AMD
KLAS 290246Z 2903/2924 16006KT P6SM SKC
     FM290500 20008KT P6SM SKC
     FM291600 VRB05KT P6SM FEW250=



000
FTUS45 KVEF 290200 AAA
TAFLAS
TAF AMD
KLAS 290246Z 2903/2924 16006KT P6SM SKC
     FM290500 20008KT P6SM SKC
     FM291600 VRB05KT P6SM FEW250=



000
FTUS45 KVEF 282300
TAFLAS
TAF
KLAS 282320Z 2900/2924 07007KT P6SM SKC
     FM290300 20008KT P6SM SKC
     FM291600 VRB05KT P6SM FEW250=



000
FTUS45 KVEF 282300
TAFDAG
TAF
KDAG 282320Z 2900/2924 30008KT P6SM SKC
     FM290300 25010KT P6SM SKC
     FM291600 30010KT P6SM FEW250=



000
FTUS45 KVEF 282300
TAFLAS
TAF
KLAS 282320Z 2900/2924 07007KT P6SM SKC
     FM290300 20008KT P6SM SKC
     FM291600 VRB05KT P6SM FEW250=



000
FTUS45 KVEF 282300
TAFEED
TAF
KEED 282320Z 2900/2924 VRB05KT P6SM SKC
     FM290300 28007KT P6SM SKC
     FM291400 VRB06KT P6SM SKC=



000
FTUS45 KVEF 282300
TAFVGT
TAF
KVGT 282320Z 2900/2924 VRB05KT P6SM SKC
     FM292000 15007KT P6SM FEW250=



000
FTUS45 KVEF 282300
TAFBIH
TAF
KBIH 282320Z 2900/2924 16012G19KT P6SM SKC
     FM290800 33006KT P6SM SKC
     FM292000 17012G20KT P6SM SCT250=



000
FTUS45 KVEF 282000 AAA
TAFLAS
TAF AMD
KLAS 282048Z 2821/2918 07007KT P6SM SKC
     FM290300 20008KT P6SM SKC=



000
FTUS45 KVEF 282000 AAA
TAFLAS
TAF AMD
KLAS 282048Z 2821/2918 07007KT P6SM SKC
     FM290300 20008KT P6SM SKC=



000
FTUS45 KVEF 281700
TAFDAG
TAF
KDAG 281740Z 2818/2918 29010KT P6SM SKC
     FM282100 VRB05KT P6SM SKC
     FM290100 25010KT P6SM SKC=



000
FTUS45 KVEF 281700
TAFLAS
TAF
KLAS 281740Z 2818/2918 05005KT P6SM SKC
     FM281900 07007KT P6SM SKC
     FM290300 20008KT P6SM SKC=



000
FTUS45 KVEF 281700
TAFEED
TAF
KEED 281740Z 2818/2918 02008KT P6SM SKC
     FM290300 28007KT P6SM SKC=



000
FTUS45 KVEF 281700
TAFLAS
TAF
KLAS 281740Z 2818/2918 05005KT P6SM SKC
     FM281900 07007KT P6SM SKC
     FM290300 20008KT P6SM SKC=



000
FTUS45 KVEF 281700
TAFVGT
TAF
KVGT 281740Z 2818/2918 06005KT P6SM SKC
     FM281900 12008KT P6SM SKC
     FM290100 VRB05KT P6SM SKC
     FM290600 33005KT P6SM SKC=



000
FTUS45 KVEF 281700
TAFBIH
TAF
KBIH 281740Z 2818/2918 VRB05KT P6SM SKC
     FM282000 16009KT P6SM SKC
     FM290800 33006KT P6SM SKC=



000
FTUS45 KVEF 281400 AAA
TAFLAS
TAF AMD
KLAS 281455Z 2815/2912 VRB06KT P6SM SKC
     FM281900 07007KT P6SM SKC
     FM290300 20008KT P6SM SKC=



000
FTUS45 KVEF 281400 AAA
TAFLAS
TAF AMD
KLAS 281455Z 2815/2912 VRB06KT P6SM SKC
     FM281900 07007KT P6SM SKC
     FM290300 20008KT P6SM SKC=



000
FTUS45 KVEF 281100
TAFBIH
TAF
KBIH 281120Z 2812/2912 34006KT P6SM SKC
     FM281400 VRB05KT P6SM SKC
     FM282000 16009KT P6SM SKC
     FM290800 33006KT P6SM SKC=



000
FTUS45 KVEF 281100
TAFLAS
TAF
KLAS 281120Z 2812/2912 VRB06KT P6SM SKC
     FM281900 07007KT P6SM SKC
     FM290300 20008KT P6SM SKC=



000
FTUS45 KVEF 281100
TAFVGT
TAF
KVGT 281120Z 2812/2912 33005KT P6SM SKC
     FM281800 12008KT P6SM SKC
     FM290100 VRB05KT P6SM SKC
     FM290600 33005KT P6SM SKC=



000
FTUS45 KVEF 281100
TAFLAS
TAF
KLAS 281120Z 2812/2912 VRB06KT P6SM SKC
     FM281900 07007KT P6SM SKC
     FM290300 20008KT P6SM SKC=



000
FTUS45 KVEF 281100
TAFEED
TAF
KEED 281120Z 2812/2912 30007KT P6SM SKC
     FM281800 02008KT P6SM SKC
     FM290300 28007KT P6SM SKC=



000
FTUS45 KVEF 281100
TAFDAG
TAF
KDAG 281120Z 2812/2912 27010KT P6SM SKC
     FM281700 32010KT P6SM SKC
     FM282100 VRB05KT P6SM SKC
     FM290100 25010KT P6SM SKC=



000
FTUS45 KVEF 280800 AAA
TAFLAS
TAF AMD
KLAS 280845Z 2809/2906 20008KT P6SM SKC
     FM281500 VRB05KT P6SM SKC
     FM281900 13007KT P6SM SKC
     FM290300 20008KT P6SM SKC=



000
FTUS45 KVEF 280800 AAA
TAFLAS
TAF AMD
KLAS 280845Z 2809/2906 20008KT P6SM SKC
     FM281500 VRB05KT P6SM SKC
     FM281900 13007KT P6SM SKC
     FM290300 20008KT P6SM SKC=



000
FTUS45 KVEF 280500
TAFLAS
TAF
KLAS 280532Z 2806/2906 20008KT P6SM SKC
     FM281500 VRB05KT P6SM SKC
     FM281900 13007KT P6SM SKC
     FM290300 20008KT P6SM SKC=



000
FTUS45 KVEF 280500
TAFEED
TAF
KEED 280532Z 2806/2906 24007KT P6SM SKC
     FM281500 VRB05KT P6SM SKC
     FM281800 02007KT P6SM SKC=



000
FTUS45 KVEF 280500
TAFLAS
TAF
KLAS 280532Z 2806/2906 20008KT P6SM SKC
     FM281500 VRB05KT P6SM SKC
     FM281900 13007KT P6SM SKC
     FM290300 20008KT P6SM SKC=



000
FTUS45 KVEF 280500
TAFBIH
TAF
KBIH 280532Z 2806/2906 15010KT P6SM SKC
     FM280800 33006KT P6SM SKC
     FM281400 VRB04KT P6SM SKC
     FM281900 16009KT P6SM SKC=



000
FTUS45 KVEF 280500
TAFVGT
TAF
KVGT 280532Z 2806/2906 VRB05KT P6SM SKC
     FM281800 12007KT P6SM SKC
     FM290300 VRB05KT P6SM SKC=



000
FTUS45 KVEF 280500
TAFDAG
TAF
KDAG 280532Z 2806/2906 26010KT P6SM SKC
     FM281700 30010KT P6SM SKC
     FM282100 VRB05KT P6SM SKC
     FM290200 25010KT P6SM SKC=



000
FTUS45 KVEF 280200 AAA
TAFLAS
TAF AMD
KLAS 280257Z 2803/2824 20008KT P6SM SKC
     FM281600 VRB05KT P6SM SKC=



000
FTUS45 KVEF 280200 AAA
TAFLAS
TAF AMD
KLAS 280257Z 2803/2824 20008KT P6SM SKC
     FM281600 VRB05KT P6SM SKC=



000
FTUS45 KVEF 272300
TAFLAS
TAF
KLAS 272320Z 2800/2824 05007KT P6SM FEW140
     FM280200 21008KT P6SM SKC
     FM281600 VRB05KT P6SM SKC=



000
FTUS45 KVEF 272300
TAFEED
TAF
KEED 272320Z 2800/2824 VRB06KT P6SM FEW140
     FM280100 24007KT P6SM SKC
     FM281500 VRB05KT P6SM SKC=



000
FTUS45 KVEF 272300
TAFBIH
TAF
KBIH 272320Z 2800/2824 19007KT P6SM SKC
     FM280200 15010KT P6SM SKC
     FM280500 33006KT P6SM SKC=



000
FTUS45 KVEF 272300
TAFVGT
TAF
KVGT 272320Z 2800/2824 12007KT P6SM FEW140
     FM280300 VRB05KT P6SM SKC
     FM281800 12007KT P6SM SKC=



000
FTUS45 KVEF 272300
TAFLAS
TAF
KLAS 272320Z 2800/2824 05007KT P6SM FEW140
     FM280200 21008KT P6SM SKC
     FM281600 VRB05KT P6SM SKC=



000
FTUS45 KVEF 272300
TAFDAG
TAF
KDAG 272320Z 2800/2824 28011G18KT P6SM FEW140
     FM280200 25010KT P6SM SKC
     FM281600 30010KT P6SM SKC
     FM282100 VRB05KT P6SM SKC=



000
FTUS45 KVEF 271700
TAFBIH
TAF
KBIH 271720Z 2718/2818 33006KT P6SM SKC
     FM272000 15010KT P6SM SKC
     FM280400 33006KT P6SM SKC=



000
FTUS45 KVEF 271700
TAFDAG
TAF
KDAG 271720Z 2718/2818 31010KT P6SM SKC
     FM280200 25010KT P6SM SKC
     FM281600 30010KT P6SM SKC=



000
FTUS45 KVEF 271700
TAFLAS
TAF
KLAS 271720Z 2718/2818 05007KT P6SM SKC
     FM280200 21008KT P6SM SKC
     FM281600 VRB05KT P6SM SKC=



000
FTUS45 KVEF 271700
TAFEED
TAF
KEED 271720Z 2718/2818 04006KT P6SM SKC
     FM272100 21007KT P6SM SKC=



000
FTUS45 KVEF 271700
TAFLAS
TAF
KLAS 271720Z 2718/2818 05007KT P6SM SKC
     FM280200 21008KT P6SM SKC
     FM281600 VRB05KT P6SM SKC=



000
FTUS45 KVEF 271700
TAFVGT
TAF
KVGT 271720Z 2718/2818 VRB05KT P6SM SKC
     FM271900 13008KT P6SM SKC
     FM280300 VRB05KT P6SM SKC=



000
FTUS45 KVEF 271400 AAA
TAFLAS
TAF AMD
KLAS 271437Z 2715/2812 VRB05KT P6SM SKC
     FM271700 05007KT P6SM SKC
     FM280200 21008KT P6SM SKC=



000
FTUS45 KVEF 271400 AAA
TAFLAS
TAF AMD
KLAS 271437Z 2715/2812 VRB05KT P6SM SKC
     FM271700 05007KT P6SM SKC
     FM280200 21008KT P6SM SKC=



000
FTUS45 KVEF 271100
TAFBIH
TAF
KBIH 271120Z 2712/2812 33006KT P6SM SKC
     FM272000 15010KT P6SM SKC
     FM280400 33006KT P6SM SKC=



000
FTUS45 KVEF 271100
TAFEED
TAF
KEED 271120Z 2712/2812 VRB06KT P6SM SKC
     FM272100 21007KT P6SM SKC=



000
FTUS45 KVEF 271100
TAFVGT
TAF
KVGT 271120Z 2712/2812 VRB05KT P6SM FEW120
     FM271700 13008KT P6SM SKC
     FM280300 VRB05KT P6SM SKC=



000
FTUS45 KVEF 271100
TAFLAS
TAF
KLAS 271120Z 2712/2812 VRB05KT P6SM FEW120
     FM271700 05007KT P6SM SKC
     FM280200 21008KT P6SM SKC=



000
FTUS45 KVEF 271100
TAFDAG
TAF
KDAG 271120Z 2712/2812 27010KT P6SM SKC
     FM271800 31008KT P6SM SKC
     FM280100 25010KT P6SM SKC=



000
FTUS45 KVEF 271100
TAFLAS
TAF
KLAS 271120Z 2712/2812 VRB05KT P6SM FEW120
     FM271700 05007KT P6SM SKC
     FM280200 21008KT P6SM SKC=



000
FTUS45 KVEF 270800 AAB
TAFLAS
TAF AMD
KLAS 270849Z 2709/2806 34010KT P6SM SKC
     FM271100 VRB05KT P6SM FEW120
     FM271600 05007KT P6SM SKC
     FM280200 21008KT P6SM SKC=



000
FTUS45 KVEF 270800 AAB
TAFLAS
TAF AMD
KLAS 270849Z 2709/2806 34010KT P6SM SKC
     FM271100 VRB05KT P6SM FEW120
     FM271600 05007KT P6SM SKC
     FM280200 21008KT P6SM SKC=



000
FTUS45 KVEF 270600 AAA
TAFLAS
TAF AMD
KLAS 270635Z 2707/2806 05010KT P6SM SKC
     FM270800 22007KT P6SM SKC
     FM271600 05007KT P6SM SKC
     FM280200 21008KT P6SM SKC=



000
FTUS45 KVEF 270600 AAA
TAFLAS
TAF AMD
KLAS 270635Z 2707/2806 05010KT P6SM SKC
     FM270800 22007KT P6SM SKC
     FM271600 05007KT P6SM SKC
     FM280200 21008KT P6SM SKC=



000
FTUS45 KVEF 270500
TAFLAS
TAF
KLAS 270527Z 2706/2806 22007KT P6SM SKC
     FM271600 05007KT P6SM SKC
     FM280200 21008KT P6SM SKC=



000
FTUS45 KVEF 270500
TAFDAG
TAF
KDAG 270527Z 2706/2806 27010KT P6SM SKC
     FM271800 31010KT P6SM SKC
     FM280100 25010KT P6SM SKC=



000
FTUS45 KVEF 270500
TAFLAS
TAF
KLAS 270527Z 2706/2806 22007KT P6SM SKC
     FM271600 05007KT P6SM SKC
     FM280200 21008KT P6SM SKC=



000
FTUS45 KVEF 270500
TAFEED
TAF
KEED 270527Z 2706/2806 VRB06KT P6SM SKC
     FM272100 21007KT P6SM SKC=



000
FTUS45 KVEF 270500
TAFVGT
TAF
KVGT 270527Z 2706/2806 32005KT P6SM SKC
     FM271600 07006KT P6SM SKC
     FM280300 VRB05KT P6SM SKC=



000
FTUS45 KVEF 270500
TAFBIH
TAF
KBIH 270527Z 2706/2806 33006KT P6SM SKC
     FM272000 15010KT P6SM SKC
     FM280400 33006KT P6SM SKC=



000
FTUS45 KVEF 270200 AAA
TAFLAS
TAF AMD
KLAS 270246Z 2703/2724 21010KT P6SM SKC
     FM271600 05007KT P6SM SKC=



000
FTUS45 KVEF 270200 AAA
TAFLAS
TAF AMD
KLAS 270246Z 2703/2724 21010KT P6SM SKC
     FM271600 05007KT P6SM SKC=



000
FTUS45 KVEF 262300
TAFLAS
TAF
KLAS 262320Z 2700/2724 20014G24KT P6SM SCT120 BKN200
     FM270400 20011KT P6SM FEW100 SCT200
     FM271600 05007KT P6SM FEW200=



000
FTUS45 KVEF 262300
TAFBIH
TAF
KBIH 262320Z 2700/2724 36009KT P6SM FEW120
     FM270400 33006KT P6SM SKC
     FM272000 15010KT P6SM SKC=



000
FTUS45 KVEF 262300
TAFLAS
TAF
KLAS 262320Z 2700/2724 20014G24KT P6SM SCT120 BKN200
     FM270400 20011KT P6SM FEW100 SCT200
     FM271600 05007KT P6SM FEW200=



000
FTUS45 KVEF 262300
TAFDAG
TAF
KDAG 262320Z 2700/2724 28010G20KT P6SM FEW150 SCT250
     FM270200 24014KT P6SM SKC
     FM270500 27010KT P6SM SKC
     FM271800 30010KT P6SM SKC=



000
FTUS45 KVEF 262300
TAFVGT
TAF
KVGT 262320Z 2700/2724 22014G24KT P6SM SCT120
     FM270300 22010KT P6SM FEW100
     FM270700 34006KT P6SM FEW100
     FM271600 07006KT P6SM FEW200=



000
FTUS45 KVEF 262300
TAFEED
TAF
KEED 262320Z 2700/2724 19011KT P6SM SCT080 BKN120
     FM270400 23008KT P6SM SCT120
     FM271000 18006KT P6SM FEW120=



000
FTUS45 KVEF 262200 AAA
TAFEED
TAF AMD
KEED 262211Z 2622/2718 19011KT P6SM SCT080 BKN120
     FM270400 23008KT P6SM SCT120
     FM271000 18006KT P6SM FEW120=



000
FTUS45 KVEF 262100 AAA
TAFVGT
TAF AMD
KVGT 262139Z 2622/2718 22014G24KT P6SM SCT120
     FM270300 22010KT P6SM FEW100
     FM270700 34006KT P6SM FEW100
     FM271600 07006KT P6SM FEW200=



000
FTUS45 KVEF 262000 AAA
TAFLAS
TAF AMD
KLAS 262055Z 2621/2718 20014G24KT P6SM SCT120 BKN200
     FM270400 20011KT P6SM FEW100 SCT200
     FM271600 05007KT P6SM FEW200=



000
FTUS45 KVEF 262000 AAA
TAFLAS
TAF AMD
KLAS 262055Z 2621/2718 20014G24KT P6SM SCT120 BKN200
     FM270400 20011KT P6SM FEW100 SCT200
     FM271600 05007KT P6SM FEW200=



000
FTUS45 KVEF 261700
TAFLAS
TAF
KLAS 261738Z 2618/2718 18014G24KT P6SM SCT120 BKN200
     FM270400 20011KT P6SM FEW100 SCT200
     FM271600 05007KT P6SM FEW200=



000
FTUS45 KVEF 261700
TAFEED
TAF
KEED 261738Z 2618/2718 20010KT P6SM VCTS SCT080CB BKN120
     FM270400 23008KT P6SM SCT120
     FM271000 18006KT P6SM FEW120=



000
FTUS45 KVEF 261700
TAFDAG
TAF
KDAG 261738Z 2618/2718 28010KT P6SM FEW150 SCT250
     FM270200 24014KT P6SM SKC
     FM270500 27010KT P6SM SKC=



000
FTUS45 KVEF 261700
TAFLAS
TAF
KLAS 261738Z 2618/2718 18014G24KT P6SM SCT120 BKN200
     FM270400 20011KT P6SM FEW100 SCT200
     FM271600 05007KT P6SM FEW200=



000
FTUS45 KVEF 261700
TAFVGT
TAF
KVGT 261738Z 2618/2718 16012KT P6SM SCT120 BKN200
     FM262000 20015G25KT P6SM SCT120
     FM270300 22010KT P6SM FEW100
     FM270700 34006KT P6SM FEW100
     FM271600 07006KT P6SM FEW200=



000
FTUS45 KVEF 261700
TAFBIH
TAF
KBIH 261738Z 2618/2718 33008KT P6SM FEW120
     FM262000 36009KT P6SM FEW120
     FM270400 33006KT P6SM SKC=



000
FTUS45 KVEF 261500 AAA
TAFEED
TAF AMD
KEED 261541Z 2616/2712 18010KT P6SM VCTS SCT080CB BKN120
     FM261900 20012G20KT P6SM VCTS SCT080CB BKN120
     FM270400 23008KT P6SM SCT120=



000
FTUS45 KVEF 261400 AAA
TAFLAS
TAF AMD
KLAS 261458Z 2615/2712 18011KT P6SM FEW150 BKN250
     FM261800 19014G24KT P6SM SCT120
     FM270400 20011KT P6SM FEW100=



000
FTUS45 KVEF 261100
TAFLAS
TAF
KLAS 261120Z 2612/2712 15011KT P6SM FEW150 BKN250
     FM262000 19014G24KT P6SM SCT120
     FM270400 20011KT P6SM FEW100=



000
FTUS45 KVEF 261100
TAFLAS
TAF
KLAS 261120Z 2612/2712 15011KT P6SM FEW150 BKN250
     FM262000 19014G24KT P6SM SCT120
     FM270400 20011KT P6SM FEW100=



000
FTUS45 KVEF 261100
TAFVGT
TAF
KVGT 261120Z 2612/2712 18007KT P6SM FEW150 BKN250
     FM261800 20015G25KT P6SM SCT120
     FM270300 22010KT P6SM FEW100
     FM270700 34006KT P6SM FEW100=



000
FTUS45 KVEF 261100
TAFBIH
TAF
KBIH 261120Z 2612/2712 33008KT P6SM SKC
     FM262000 36009KT P6SM FEW120
     FM270400 33006KT P6SM SKC=



000
FTUS45 KVEF 261100
TAFDAG
TAF
KDAG 261120Z 2612/2712 28010KT P6SM FEW150 SCT250
     FM270200 24014KT P6SM SKC
     FM270500 27010KT P6SM SKC=



000
FTUS45 KVEF 261100
TAFEED
TAF
KEED 261120Z 2612/2712 18010KT P6SM FEW150 BKN200
     FM262000 20012G20KT P6SM VCTS SCT080CB BKN120
     FM270400 23008KT P6SM SCT120=



000
FTUS45 KVEF 260800 AAA
TAFLAS
TAF AMD
KLAS 260846Z 2609/2706 18011KT P6SM FEW150 BKN250
     FM262000 19015G23KT P6SM VCTS SCT090CB SCT120
     FM270400 22011KT P6SM FEW100 SCT250=



000
FTUS45 KVEF 260800 AAA
TAFLAS
TAF AMD
KLAS 260846Z 2609/2706 18011KT P6SM FEW150 BKN250
     FM262000 19015G23KT P6SM VCTS SCT090CB SCT120
     FM270400 22011KT P6SM FEW100 SCT250=



000
FTUS45 KVEF 260500
TAFBIH
TAF
KBIH 260530Z 2606/2706 34012G20KT P6SM FEW250
     FM260800 34009KT P6SM FEW130 SCT250
     FM270400 VRB06KT P6SM SKC=



000
FTUS45 KVEF 260500
TAFDAG
TAF
KDAG 260530Z 2606/2706 24012KT P6SM FEW150 BKN250
     FM261300 28011KT P6SM FEW150 SCT250
     FM270200 24014KT P6SM SKC=



000
FTUS45 KVEF 260500
TAFLAS
TAF
KLAS 260530Z 2606/2706 20011KT P6SM FEW150 BKN250
     FM262000 19015G23KT P6SM VCTS SCT090CB SCT120
     FM270400 22011KT P6SM FEW100 SCT250=



000
FTUS45 KVEF 260500
TAFEED
TAF
KEED 260530Z 2606/2706 22008KT P6SM FEW150 BKN250
     FM262100 20012G20KT P6SM VCTS SCT080CB BKN120=



000
FTUS45 KVEF 260500
TAFVGT
TAF
KVGT 260530Z 2606/2706 19007KT P6SM FEW150 BKN250
     FM262000 22015G23KT P6SM SCT090 SCT120
     FM270400 22010KT P6SM FEW100 SCT250=



    US Dept of Commerce
    National Oceanic and Atmospheric Administration
    National Weather Service
    1325 East West Highway
    Silver Spring, MD 20910
    Page Author: NWS Internet Services Team
Disclaimer
Information Quality
Credits
Glossary
Privacy Policy
Freedom of Information Act (FOIA)
About Us
Career Opportunities